createdAt,value
2018-07-23T00:04:34.337Z,100.00
2018-07-23T00:07:21.051Z,100.00
2018-07-23T00:10:06.278Z,100.00
2018-07-23T00:13:14.401Z,100.00
2018-07-23T00:16:02.755Z,100.00
2018-07-23T00:19:00.621Z,100.00
2018-07-23T00:21:46.052Z,100.00
2018-07-23T00:27:36.081Z,100.00
2018-07-23T00:33:51.931Z,100.00
2018-07-23T00:43:13.315Z,100.00
2018-07-23T00:46:14.474Z,100.00
2018-07-23T00:58:52.494Z,100.00
2018-07-23T01:04:51.651Z,100.00
2018-07-23T01:07:56.647Z,100.00
2018-07-23T01:16:58.292Z,100.00
2018-07-23T01:19:54.079Z,100.00
2018-07-23T01:22:59.765Z,100.00
2018-07-23T01:32:30.551Z,100.00
2018-07-23T01:35:30.335Z,100.00
2018-07-23T01:38:27.980Z,100.00
2018-07-23T01:41:47.426Z,100.00
2018-07-23T01:44:42.306Z,100.00
2018-07-23T01:47:43.153Z,100.00
2018-07-23T01:50:46.250Z,100.00
2018-07-23T01:53:47.252Z,99.88
2018-07-23T01:56:49.149Z,99.56
2018-07-23T01:59:58.780Z,99.57
2018-07-23T02:06:26.226Z,97.53
2018-07-23T02:09:31.407Z,97.77
2018-07-23T02:12:41.988Z,97.52
2018-07-23T02:15:46.919Z,97.44
2018-07-23T02:18:34.271Z,96.40
2018-07-23T02:21:18.014Z,95.78
2018-07-23T02:28:00.775Z,97.00
2018-07-23T02:31:02.880Z,95.38
2018-07-23T02:34:11.014Z,94.80
2018-07-23T02:40:16.093Z,93.84
2018-07-23T02:43:07.396Z,93.26
2018-07-23T02:46:04.104Z,93.66
2018-07-23T02:49:16.645Z,93.07
2018-07-23T02:52:55.464Z,94.05
2018-07-23T02:55:55.010Z,94.33
2018-07-23T02:58:51.383Z,92.79
2018-07-23T03:01:46.525Z,94.63
2018-07-23T03:12:04.882Z,92.78
2018-07-23T05:30:53.079Z,85.47
2018-07-23T07:13:17.106Z,80.47
2018-07-23T07:19:38.409Z,81.20
2018-07-23T17:20:55.950Z,90.72
2018-07-23T17:23:32.838Z,90.37
2018-07-23T17:26:09.321Z,90.28
2018-07-23T17:28:45.876Z,90.68
2018-07-23T17:31:23.756Z,91.09
2018-07-23T17:34:03.749Z,91.70
2018-07-23T17:36:46.740Z,91.22
2018-07-23T17:39:23.819Z,92.06
2018-07-23T17:42:06.405Z,91.36
2018-07-23T17:44:43.837Z,91.38
2018-07-23T17:47:22.241Z,91.88
2018-07-23T17:50:01.991Z,91.59
2018-07-23T17:52:40.362Z,92.30
2018-07-23T17:55:23.389Z,92.29
2018-07-23T17:58:01.796Z,92.08
2018-07-23T18:00:39.360Z,91.97
2018-07-23T18:03:25.562Z,91.95
2018-07-23T18:06:06.957Z,92.57
2018-07-23T18:08:45.162Z,93.31
2018-07-23T18:11:23.009Z,92.50
2018-07-23T18:14:00.274Z,92.46
2018-07-23T18:16:38.439Z,92.08
2018-07-23T18:19:19.285Z,92.63
2018-07-23T18:21:56.404Z,92.63
2018-07-23T18:24:33.834Z,92.92
2018-07-23T18:27:12.890Z,92.76
2018-07-23T18:29:51.361Z,93.39
2018-07-23T18:32:30.198Z,93.56
2018-07-23T18:35:09.759Z,93.10
2018-07-23T18:37:47.594Z,92.85
2018-07-23T18:40:25.528Z,93.18
2018-07-23T18:43:03.391Z,93.17
2018-07-23T18:45:45.041Z,93.20
2018-07-23T18:50:39.562Z,93.53
2018-07-23T18:53:19.989Z,93.67
2018-07-23T18:55:56.038Z,93.76
2018-07-23T18:58:33.434Z,94.07
2018-07-23T19:01:10.091Z,93.42
2018-07-23T19:03:47.479Z,93.27
2018-07-23T19:06:25.576Z,93.60
2018-07-23T19:09:03.084Z,93.30
2018-07-23T19:11:41.065Z,92.81
2018-07-23T19:14:19.152Z,92.83
2018-07-23T19:16:57.553Z,93.29
2018-07-23T19:19:35.153Z,93.16
2018-07-23T19:22:11.955Z,93.34
2018-07-23T19:24:50.286Z,94.01
2018-07-23T19:27:27.606Z,93.98
2018-07-23T19:30:05.697Z,93.91
2018-07-23T19:32:43.112Z,94.11
2018-07-23T19:35:21.771Z,93.80
2018-07-23T19:37:59.544Z,93.85
2018-07-23T19:40:39.965Z,93.97
2018-07-23T19:43:17.906Z,93.72
2018-07-23T19:45:54.557Z,93.84
2018-07-23T19:48:41.812Z,94.01
2018-07-23T19:51:20.477Z,93.75
2018-07-23T19:53:57.602Z,94.03
2018-07-23T19:56:34.483Z,94.02
2018-07-23T19:59:24.957Z,94.36
2018-07-23T20:02:01.996Z,94.24
2018-07-23T20:04:44.513Z,93.91
2018-07-23T20:07:22.654Z,93.98
2018-07-23T20:09:59.302Z,94.41
2018-07-23T20:12:36.840Z,94.37
2018-07-23T20:15:15.085Z,94.69
2018-07-23T20:17:52.856Z,94.56
2018-07-23T20:20:30.489Z,94.34
2018-07-23T20:23:07.530Z,94.25
2018-07-23T20:25:44.614Z,94.57
2018-07-23T20:28:23.312Z,94.46
2018-07-23T20:31:01.379Z,94.56
2018-07-23T20:33:39.145Z,94.15
2018-07-23T20:36:20.056Z,94.68
2018-07-23T20:38:57.216Z,93.59
2018-07-23T20:41:34.303Z,94.43
2018-07-23T20:44:11.826Z,94.51
2018-07-23T20:46:49.784Z,93.37
2018-07-23T20:49:27.904Z,93.74
2018-07-23T20:52:05.172Z,93.47
2018-07-23T20:54:43.195Z,93.58
2018-07-23T20:57:20.738Z,93.84
2018-07-23T20:59:57.862Z,94.44
2018-07-23T21:02:35.705Z,93.61
2018-07-23T21:05:13.188Z,94.49
2018-07-23T21:07:49.948Z,94.76
2018-07-23T21:10:28.362Z,94.70
2018-07-23T21:13:05.707Z,94.64
2018-07-23T21:15:43.537Z,94.39
2018-07-23T21:18:21.671Z,94.18
2018-07-23T21:21:03.479Z,94.51
2018-07-23T21:23:41.365Z,94.67
2018-07-23T21:26:18.593Z,94.87
2018-07-23T21:28:56.733Z,94.55
2018-07-23T21:31:34.546Z,94.73
2018-07-23T21:34:12.672Z,94.30
2018-07-23T21:36:52.479Z,94.55
2018-07-23T21:39:30.646Z,94.63
2018-07-23T21:42:10.753Z,94.74
2018-07-23T21:44:49.177Z,95.01
2018-07-23T21:47:26.516Z,94.65
2018-07-23T21:50:04.511Z,92.73
2018-07-23T21:52:41.687Z,91.29
2018-07-23T21:55:19.832Z,88.57
2018-07-23T21:57:57.682Z,88.64
2018-07-23T22:00:36.644Z,88.90
2018-07-23T22:03:15.801Z,89.21
2018-07-23T22:05:54.032Z,89.29
2018-07-23T22:08:31.419Z,90.12
2018-07-23T22:11:08.384Z,90.95
2018-07-23T22:13:46.064Z,90.84
2018-07-23T22:16:24.406Z,91.32
2018-07-23T22:19:01.612Z,91.63
2018-07-23T22:21:39.489Z,91.74
2018-07-23T22:24:17.845Z,92.56
2018-07-23T22:26:55.820Z,92.35
2018-07-23T22:29:32.883Z,92.32
2018-07-23T22:32:10.131Z,92.29
2018-07-23T22:34:48.383Z,91.81
2018-07-23T22:37:26.895Z,92.29
2018-07-23T22:40:05.296Z,92.36
2018-07-23T22:42:44.329Z,92.60
2018-07-23T22:45:21.826Z,92.77
2018-07-23T22:47:59.563Z,92.40
2018-07-23T22:50:37.849Z,92.64
2018-07-23T22:53:15.685Z,93.52
2018-07-23T22:55:54.153Z,92.69
2018-07-23T22:58:31.857Z,92.35
2018-07-23T23:01:09.611Z,92.54
2018-07-23T23:03:47.705Z,92.64
2018-07-23T23:06:26.090Z,93.13
2018-07-23T23:09:04.820Z,91.87
2018-07-23T23:11:43.355Z,93.09
2018-07-23T23:14:22.489Z,92.26
2018-07-23T23:17:00.905Z,92.69
2018-07-23T23:19:39.920Z,92.86
2018-07-23T23:22:17.912Z,92.94
2018-07-23T23:24:55.641Z,93.24
2018-07-23T23:27:32.878Z,93.40
2018-07-23T23:30:11.845Z,92.69
2018-07-23T23:32:50.564Z,92.40
2018-07-23T23:35:28.968Z,92.46
2018-07-23T23:38:07.360Z,92.63
2018-07-23T23:40:45.844Z,91.89
2018-07-23T23:43:24.572Z,92.66
2018-07-23T23:46:01.929Z,93.16
2018-07-23T23:48:40.164Z,91.99
2018-07-23T23:51:18.888Z,91.70
2018-07-23T23:53:57.685Z,91.31
2018-07-23T23:56:35.926Z,92.15
2018-07-23T23:59:14.598Z,91.64
